createdAt,value
2023-04-17T08:20:17.910Z,68.80
2023-04-17T08:22:45.942Z,82.40
2023-04-17T08:25:13.430Z,80.43
2023-04-17T08:27:42.032Z,70.18
2023-04-17T08:30:12.931Z,78.65
2023-04-17T08:32:42.637Z,73.20
2023-04-17T08:35:10.429Z,72.65
2023-04-17T08:37:37.643Z,65.70
2023-04-17T08:40:05.168Z,70.57
2023-04-17T08:42:38.410Z,69.63
2023-04-17T08:45:07.057Z,60.72
2023-04-17T08:47:34.410Z,68.57
2023-04-17T08:50:21.476Z,71.68
2023-04-17T08:52:49.966Z,68.55
2023-04-17T08:55:19.342Z,66.20
2023-04-17T08:58:02.789Z,58.95
2023-04-17T09:00:37.727Z,67.45
2023-04-17T09:03:06.427Z,62.03
2023-04-17T09:05:33.909Z,61.85
2023-04-17T09:08:20.922Z,61.65
2023-04-17T09:10:52.049Z,63.85
2023-04-17T09:13:24.267Z,63.67
2023-04-17T09:16:23.469Z,100.80
2023-04-17T09:18:50.410Z,91.85
2023-04-17T09:21:18.276Z,66.05
2023-04-17T09:23:50.695Z,61.08
2023-04-17T09:26:22.509Z,62.53
2023-04-17T09:29:04.307Z,57.60
2023-04-17T09:31:32.315Z,57.75
2023-04-17T09:34:04.148Z,61.83
2023-04-17T09:36:33.171Z,60.13
2023-04-17T09:39:19.442Z,64.78
2023-04-17T09:41:46.630Z,64.10
2023-04-17T09:54:06.682Z,49.25
2023-04-17T09:56:33.948Z,48.45
2023-04-17T09:59:03.146Z,47.45
2023-04-17T10:01:31.915Z,46.33
2023-04-17T10:03:58.988Z,44.60
2023-04-17T10:06:26.291Z,43.17
2023-04-17T10:08:52.787Z,41.45
2023-04-17T10:11:20.215Z,45.85
2023-04-17T10:13:52.732Z,41.15
2023-04-17T10:16:19.353Z,43.63
2023-04-17T10:18:45.952Z,39.67
2023-04-17T10:21:23.225Z,39.28
2023-04-17T10:23:49.882Z,36.00
2023-04-17T10:26:25.445Z,36.92
2023-04-17T10:28:53.748Z,34.50
2023-04-17T10:31:21.630Z,30.58
2023-04-17T10:33:52.617Z,36.55
2023-04-17T10:36:37.915Z,34.72
2023-04-17T10:39:17.818Z,27.77
2023-04-17T10:42:03.231Z,28.25
2023-04-17T10:44:39.597Z,25.80
2023-04-17T10:49:48.712Z,27.58
2023-04-17T10:52:44.374Z,29.13
2023-04-17T10:55:15.270Z,27.30
2023-04-17T10:57:52.231Z,23.77
2023-04-17T11:00:20.259Z,25.25
2023-04-17T11:02:47.402Z,24.58
2023-04-17T11:05:14.475Z,23.13
2023-04-17T11:07:41.437Z,18.27
2023-04-17T11:10:09.453Z,20.00
2023-04-17T11:12:36.354Z,19.08
2023-04-17T11:15:03.786Z,19.33
2023-04-17T11:17:30.386Z,16.30
2023-04-17T11:19:57.560Z,17.75
2023-04-17T11:22:24.151Z,18.58
2023-04-17T11:24:51.342Z,20.20
2023-04-17T11:27:17.863Z,19.67
2023-04-17T11:29:45.142Z,18.55
2023-04-17T11:32:12.188Z,17.80
2023-04-17T11:34:38.755Z,19.98
2023-04-17T11:37:05.426Z,19.75
2023-04-17T11:39:33.795Z,17.73
2023-04-17T11:42:01.249Z,20.55
2023-04-17T11:44:28.791Z,20.67
2023-04-17T11:46:57.078Z,15.00
2023-04-17T11:49:28.200Z,15.55
2023-04-17T11:51:58.510Z,17.92
2023-04-17T11:54:25.765Z,19.02
2023-04-17T11:57:02.925Z,17.10
2023-04-17T11:59:31.004Z,16.40
2023-04-17T12:01:57.496Z,17.13
2023-04-17T12:04:24.218Z,15.45
2023-04-17T12:06:50.840Z,18.00
2023-04-17T12:09:21.081Z,19.40
2023-04-17T12:11:47.702Z,16.08
2023-04-17T12:14:14.498Z,15.32
2023-04-17T12:16:41.370Z,17.23
2023-04-17T12:19:07.990Z,17.38
2023-04-17T12:21:34.451Z,17.90
2023-04-17T12:24:00.954Z,17.77
2023-04-17T12:26:27.546Z,17.85
2023-04-17T12:28:56.053Z,17.23
2023-04-17T12:31:22.630Z,13.77
2023-04-17T12:33:49.161Z,15.88
2023-04-17T12:36:15.732Z,14.45
2023-04-17T12:38:42.243Z,12.68
2023-04-17T12:41:09.296Z,13.85
2023-04-17T12:43:35.978Z,16.83
2023-04-17T12:46:02.723Z,16.05
2023-04-17T12:48:31.376Z,13.18
2023-04-17T12:50:59.364Z,14.80
2023-04-17T12:53:25.900Z,14.80
2023-04-17T12:55:52.428Z,16.63
2023-04-17T12:58:18.944Z,17.00
2023-04-17T13:00:45.878Z,11.85
2023-04-17T13:03:12.878Z,15.32
2023-04-17T13:05:39.732Z,13.95
2023-04-17T13:08:06.293Z,14.38
2023-04-17T13:10:32.822Z,14.23
2023-04-17T13:12:59.381Z,12.70
2023-04-17T13:15:25.838Z,11.43
2023-04-17T13:17:52.347Z,14.50
2023-04-17T13:20:18.888Z,14.50
2023-04-17T13:22:45.346Z,11.52
2023-04-17T13:25:11.872Z,13.10
2023-04-17T13:27:38.439Z,12.48
2023-04-17T13:30:05.494Z,12.88
2023-04-17T13:32:32.021Z,11.68
2023-04-17T13:34:58.997Z,12.15
2023-04-17T13:37:25.622Z,13.75
2023-04-17T13:39:52.145Z,12.05
2023-04-17T13:42:18.919Z,11.63
2023-04-17T13:44:45.409Z,14.68
2023-04-17T13:47:12.889Z,12.63
2023-04-17T13:49:39.415Z,10.30
2023-04-17T13:52:06.354Z,10.70
2023-04-17T13:54:32.932Z,11.07
2023-04-17T13:56:59.398Z,9.63
2023-04-17T13:59:25.907Z,10.40
2023-04-17T14:01:52.593Z,11.20
2023-04-17T14:04:19.347Z,10.70
2023-04-17T14:06:46.094Z,10.52
2023-04-17T14:09:12.797Z,9.00
2023-04-17T14:11:39.554Z,9.05
2023-04-17T14:14:06.087Z,10.38
2023-04-17T14:16:32.616Z,11.27
2023-04-17T14:19:06.417Z,11.07
2023-04-17T14:21:38.934Z,10.65
2023-04-17T14:24:05.680Z,8.40
2023-04-17T14:26:32.782Z,9.75
2023-04-17T14:28:59.266Z,9.98
2023-04-17T14:31:25.845Z,10.23
2023-04-17T14:33:52.397Z,11.63
2023-04-17T14:36:18.935Z,8.88
2023-04-17T14:38:45.474Z,9.48
2023-04-17T14:41:11.964Z,10.45
2023-04-17T14:43:38.498Z,11.60
2023-04-17T14:46:05.068Z,8.38
2023-04-17T14:48:34.359Z,11.23
2023-04-17T14:51:05.201Z,11.18
2023-04-17T14:53:31.735Z,9.73
2023-04-17T14:55:58.240Z,9.48
2023-04-17T14:58:24.743Z,10.07
2023-04-17T15:00:51.311Z,11.63
2023-04-17T15:03:17.985Z,10.77
2023-04-17T15:05:44.582Z,11.00
2023-04-17T15:08:11.064Z,11.02
2023-04-17T15:10:50.364Z,11.20
2023-04-17T15:13:18.006Z,11.10
2023-04-17T15:15:44.528Z,10.35
2023-04-17T15:18:10.985Z,10.73
2023-04-17T15:20:37.490Z,9.88
2023-04-17T15:23:04.039Z,9.20
2023-04-17T15:25:30.771Z,9.57
2023-04-17T15:27:57.296Z,8.68
2023-04-17T15:30:23.766Z,9.65
2023-04-17T15:32:50.294Z,10.75
2023-04-17T15:35:16.783Z,13.18
2023-04-17T15:37:43.286Z,9.52
2023-04-17T15:40:10.164Z,10.82
2023-04-17T15:42:36.726Z,10.27
2023-04-17T15:45:03.841Z,10.18
2023-04-17T15:47:30.411Z,10.27
2023-04-17T15:49:56.969Z,11.68
2023-04-17T15:52:23.525Z,12.20
2023-04-17T15:54:50.040Z,14.75
2023-04-17T15:57:16.535Z,11.57
2023-04-17T15:59:43.053Z,10.93
2023-04-17T16:02:11.549Z,10.85
2023-04-17T16:04:38.410Z,12.15
2023-04-17T16:07:05.531Z,11.35
2023-04-17T16:09:32.050Z,10.70
2023-04-17T16:11:58.502Z,11.25
2023-04-17T16:14:25.229Z,10.77
2023-04-17T16:16:51.746Z,10.30
2023-04-17T16:19:18.284Z,9.55
2023-04-17T16:21:44.777Z,10.25
2023-04-17T16:24:11.321Z,12.60
2023-04-17T16:26:37.902Z,11.20
2023-04-17T16:29:04.456Z,11.88
2023-04-17T16:31:31.124Z,10.75
2023-04-17T16:33:57.625Z,11.65
2023-04-17T16:36:24.133Z,9.82
2023-04-17T16:38:50.637Z,9.82
2023-04-17T16:41:17.185Z,9.82
2023-04-17T16:43:43.725Z,10.68
2023-04-17T16:46:21.400Z,11.52
2023-04-17T16:48:55.109Z,10.85
2023-04-17T16:51:24.489Z,10.98
2023-04-17T16:53:51.045Z,10.75
2023-04-17T16:56:17.538Z,10.75
2023-04-17T16:58:44.097Z,9.88
2023-04-17T17:01:10.631Z,10.07
2023-04-17T17:03:37.528Z,11.88
2023-04-17T17:06:04.536Z,11.82
2023-04-17T17:08:31.058Z,10.48
2023-04-17T17:10:57.523Z,10.90
2023-04-17T17:13:24.051Z,11.95
2023-04-17T17:15:50.520Z,9.82
2023-04-17T17:18:16.999Z,9.43
2023-04-17T17:20:43.540Z,12.23
2023-04-17T17:23:10.026Z,12.15
2023-04-17T17:25:36.559Z,10.57
2023-04-17T17:28:03.135Z,11.13
2023-04-17T17:30:29.689Z,9.90
2023-04-17T17:32:56.294Z,10.68
2023-04-17T17:35:23.144Z,12.05
2023-04-17T17:37:49.618Z,10.43
2023-04-17T17:40:16.178Z,11.10
2023-04-17T17:42:42.688Z,8.30
2023-04-17T17:45:09.649Z,13.60
2023-04-17T17:47:36.189Z,9.40
2023-04-17T17:50:02.821Z,8.75
2023-04-17T17:52:29.302Z,9.50
2023-04-17T17:54:55.753Z,9.05
2023-04-17T17:57:22.264Z,9.32
2023-04-17T17:59:48.780Z,10.80
2023-04-17T18:02:15.526Z,10.05
2023-04-17T18:04:42.210Z,11.60
2023-04-17T18:07:08.807Z,10.10
2023-04-17T18:09:35.393Z,11.10
2023-04-17T18:12:01.963Z,10.10
2023-04-17T18:14:28.480Z,10.10
2023-04-17T18:16:54.996Z,11.35
2023-04-17T18:19:21.674Z,9.52
2023-04-17T18:21:48.253Z,10.23
2023-04-17T18:24:14.933Z,9.77
2023-04-17T18:26:41.509Z,12.60
2023-04-17T18:29:08.040Z,10.82
2023-04-17T18:31:34.569Z,11.00
2023-04-17T18:34:01.166Z,9.13
2023-04-17T18:36:28.095Z,12.23
2023-04-17T18:38:54.635Z,11.93
2023-04-17T18:41:21.105Z,9.32
2023-04-17T18:43:47.581Z,9.73
2023-04-17T18:46:14.070Z,11.60
2023-04-17T18:48:40.575Z,10.40
2023-04-17T18:51:12.054Z,13.65
2023-04-17T18:53:38.611Z,13.43
2023-04-17T18:56:05.120Z,14.50
2023-04-17T18:58:31.670Z,12.27
2023-04-17T19:00:58.321Z,20.25
2023-04-17T19:03:24.862Z,15.20
2023-04-17T19:05:51.469Z,13.35
2023-04-17T19:08:18.036Z,12.77
2023-04-17T19:10:44.586Z,10.55
2023-04-17T19:13:11.081Z,15.23
2023-04-17T19:15:37.696Z,10.68
2023-04-17T19:18:04.226Z,10.13
2023-04-17T19:20:30.760Z,12.05
2023-04-17T19:22:57.312Z,12.23
2023-04-17T19:25:23.785Z,12.60
2023-04-17T19:27:50.331Z,17.80
2023-04-17T19:30:16.813Z,12.90
2023-04-17T19:32:43.332Z,13.25
2023-04-17T19:35:10.175Z,13.23
2023-04-17T19:37:36.870Z,12.32
2023-04-17T19:40:08.520Z,10.85
2023-04-17T19:42:41.091Z,12.73
2023-04-17T19:45:08.184Z,11.70
2023-04-17T19:47:34.735Z,12.95
2023-04-17T19:50:01.375Z,12.85
2023-04-17T19:52:27.885Z,10.77
2023-04-17T19:54:54.384Z,11.65
2023-04-17T19:57:20.942Z,12.55
2023-04-17T19:59:47.456Z,13.02
2023-04-17T20:02:14.065Z,12.00
2023-04-17T20:04:40.631Z,14.18
2023-04-17T20:07:07.171Z,12.18
2023-04-17T20:09:33.702Z,11.95
2023-04-17T20:12:00.212Z,14.93
2023-04-17T20:14:26.743Z,15.23
2023-04-17T20:16:53.329Z,15.77
2023-04-17T20:19:19.891Z,13.55
2023-04-17T20:21:46.446Z,13.93
2023-04-17T20:24:12.980Z,13.20
2023-04-17T20:26:39.502Z,15.45
2023-04-17T20:29:05.984Z,15.50
2023-04-17T20:31:32.564Z,13.43
2023-04-17T20:33:59.036Z,14.30
2023-04-17T20:36:25.502Z,12.90
2023-04-17T20:38:51.983Z,14.40
2023-04-17T20:41:18.555Z,14.82
2023-04-17T20:43:45.026Z,12.95
2023-04-17T20:46:11.580Z,13.75
2023-04-17T20:48:38.056Z,13.13
2023-04-17T20:51:04.734Z,14.23
2023-04-17T20:53:32.077Z,13.32
2023-04-17T20:55:58.611Z,16.45
2023-04-17T20:58:25.132Z,15.57
2023-04-17T21:01:00.787Z,16.55
2023-04-17T21:03:31.879Z,14.90
2023-04-17T21:05:58.866Z,12.93
2023-04-17T21:08:25.408Z,14.75
2023-04-17T21:10:51.930Z,15.55
2023-04-17T21:13:20.383Z,13.85
2023-04-17T21:15:46.894Z,13.35
2023-04-17T21:18:13.465Z,13.50
2023-04-17T21:20:40.056Z,15.48
2023-04-17T21:23:06.581Z,16.30
2023-04-17T21:25:33.078Z,14.32
2023-04-17T21:27:59.616Z,15.10
2023-04-17T21:30:27.350Z,13.27
2023-04-17T21:32:54.185Z,13.95
2023-04-17T21:35:20.775Z,14.40
2023-04-17T21:37:47.263Z,14.38
2023-04-17T21:40:14.080Z,16.25
2023-04-17T21:42:40.605Z,15.57
2023-04-17T21:45:07.720Z,14.63
2023-04-17T21:47:34.269Z,13.52
2023-04-17T21:50:00.781Z,14.02
2023-04-17T21:52:27.247Z,15.38
2023-04-17T21:54:53.812Z,14.77
2023-04-17T21:57:20.289Z,13.40
2023-04-17T21:59:46.778Z,14.35
2023-04-17T22:02:13.325Z,16.35
2023-04-17T22:04:39.851Z,13.18
2023-04-17T22:07:06.411Z,16.17
2023-04-17T22:09:32.965Z,17.90
2023-04-17T22:11:59.517Z,14.88
2023-04-17T22:14:26.066Z,13.52
2023-04-17T22:16:52.948Z,15.57
2023-04-17T22:19:19.539Z,16.90
2023-04-17T22:21:46.148Z,15.07
2023-04-17T22:24:12.864Z,13.55
2023-04-17T22:26:39.553Z,15.00
2023-04-17T22:29:06.176Z,15.90
2023-04-17T22:31:32.800Z,13.60
2023-04-17T22:33:59.322Z,15.77
2023-04-17T22:36:25.850Z,15.98
2023-04-17T22:38:52.395Z,18.63
2023-04-17T22:41:19.264Z,15.50
2023-04-17T22:43:49.541Z,18.42
2023-04-17T22:46:16.484Z,14.75
2023-04-17T22:48:43.057Z,15.95
2023-04-17T22:51:09.539Z,18.02
2023-04-17T22:53:36.036Z,17.20
2023-04-17T22:56:04.075Z,15.48
2023-04-17T22:58:32.084Z,17.95
2023-04-17T23:00:59.189Z,16.95
2023-04-17T23:03:25.812Z,16.05
2023-04-17T23:05:56.097Z,16.60
2023-04-17T23:08:25.436Z,16.27
2023-04-17T23:10:58.547Z,16.05
2023-04-17T23:13:26.018Z,17.67
2023-04-17T23:15:52.629Z,17.08
2023-04-17T23:18:19.458Z,16.88
2023-04-17T23:20:46.427Z,16.13
2023-04-17T23:23:12.912Z,18.20
2023-04-17T23:25:39.412Z,18.20
2023-04-17T23:28:05.898Z,16.35
2023-04-17T23:30:32.398Z,15.63
2023-04-17T23:32:58.938Z,15.10
2023-04-17T23:35:25.572Z,14.52
2023-04-17T23:37:52.105Z,16.10
2023-04-17T23:40:18.630Z,15.52
2023-04-17T23:42:45.423Z,15.32
2023-04-17T23:45:12.090Z,14.48
2023-04-17T23:47:38.650Z,14.05
2023-04-17T23:50:05.539Z,16.77
2023-04-17T23:52:32.040Z,15.57
2023-04-17T23:54:58.656Z,18.25
2023-04-17T23:57:25.175Z,20.13
2023-04-17T23:59:52.141Z,16.73
